createdAt,value
2018-01-25T00:00:16.384Z,99920
2018-01-25T00:02:46.211Z,99945
2018-01-25T00:05:16.100Z,99825
2018-01-25T00:07:45.928Z,99949
2018-01-25T00:10:15.779Z,99937
2018-01-25T00:12:45.773Z,99932
2018-01-25T00:15:15.609Z,99926
2018-01-25T00:17:45.781Z,99933
2018-01-25T00:20:15.609Z,99934
2018-01-25T00:22:45.506Z,99927
2018-01-25T00:25:15.402Z,99924
2018-01-25T00:27:45.261Z,99917
2018-01-25T00:30:15.214Z,99925
2018-01-25T00:32:45.111Z,99919
2018-01-25T00:35:14.955Z,99923
2018-01-25T00:37:44.830Z,99919
2018-01-25T00:40:14.702Z,99932
2018-01-25T00:42:44.830Z,99933
2018-01-25T00:45:14.719Z,99932
2018-01-25T00:47:44.559Z,99942
2018-01-25T00:50:14.877Z,99949
2018-01-25T00:52:44.708Z,99945
2018-01-25T00:55:14.696Z,99951
2018-01-25T00:57:44.543Z,99951
2018-01-25T01:00:14.452Z,99952
2018-01-25T01:02:44.286Z,99957
2018-01-25T01:05:14.132Z,99964
2018-01-25T01:07:43.968Z,99964
2018-01-25T01:10:13.972Z,99968
2018-01-25T01:12:43.834Z,99974
2018-01-25T01:15:13.676Z,99967
2018-01-25T01:17:43.540Z,99970
2018-01-25T01:20:13.408Z,99967
2018-01-25T01:22:43.306Z,99964
2018-01-25T01:25:13.130Z,99972
2018-01-25T01:27:42.999Z,99972
2018-01-25T01:30:12.854Z,99975
2018-01-25T01:32:42.773Z,99977
2018-01-25T01:35:12.575Z,99986
2018-01-25T01:37:42.406Z,99970
2018-01-25T01:40:12.259Z,99978
2018-01-25T01:42:42.097Z,99987
2018-01-25T01:45:11.954Z,99986
2018-01-25T01:47:41.776Z,99993
2018-01-25T01:50:11.662Z,100008
2018-01-25T01:52:41.882Z,100001
2018-01-25T01:55:11.710Z,99999
2018-01-25T01:57:41.700Z,100006
2018-01-25T02:00:11.539Z,100014
2018-01-25T02:02:41.407Z,100017
2018-01-25T02:05:11.254Z,100031
2018-01-25T02:07:41.204Z,100038
2018-01-25T02:10:11.026Z,100040
2018-01-25T02:12:40.858Z,100034
2018-01-25T02:15:10.703Z,99983
2018-01-25T02:17:40.525Z,100020
2018-01-25T02:20:10.383Z,100023
2018-01-25T02:22:40.271Z,100026
2018-01-25T02:25:10.136Z,100030
2018-01-25T02:27:39.993Z,100037
2018-01-25T02:30:09.937Z,100029
2018-01-25T02:32:40.160Z,100038
2018-01-25T02:35:10.002Z,100047
2018-01-25T02:37:39.884Z,100039
2018-01-25T02:40:09.745Z,100029
2018-01-25T02:42:39.626Z,100037
2018-01-25T02:45:09.466Z,100025
2018-01-25T02:47:39.333Z,100023
2018-01-25T02:50:09.261Z,100023
2018-01-25T02:52:39.116Z,100036
2018-01-25T02:55:08.946Z,100039
2018-01-25T02:57:38.854Z,100040
2018-01-25T03:00:08.738Z,100045
2018-01-25T03:02:38.601Z,100044
2018-01-25T03:05:08.487Z,100026
2018-01-25T03:07:38.303Z,100010
2018-01-25T03:10:08.160Z,100017
2018-01-25T03:12:37.987Z,100019
2018-01-25T03:15:07.839Z,100005
2018-01-25T03:17:37.705Z,100015
2018-01-25T03:20:07.600Z,100039
2018-01-25T03:22:37.472Z,100046
2018-01-25T03:25:07.294Z,100055
2018-01-25T03:27:37.141Z,100039
2018-01-25T03:30:06.963Z,100031
2018-01-25T03:32:36.763Z,100057
2018-01-25T03:35:06.621Z,100046
2018-01-25T03:37:36.443Z,100048
2018-01-25T03:40:06.648Z,100041
2018-01-25T03:42:36.499Z,100066
2018-01-25T03:45:06.635Z,100046
2018-01-25T03:47:38.897Z,100057
2018-01-25T03:50:09.066Z,100064
2018-01-25T03:52:38.918Z,100094
2018-01-25T03:55:08.801Z,100099
2018-01-25T03:57:38.633Z,100099
2018-01-25T04:00:08.491Z,100105
2018-01-25T04:02:38.357Z,100109
2018-01-25T04:05:08.191Z,100108
2018-01-25T04:07:38.016Z,100097
2018-01-25T04:10:07.824Z,100102
2018-01-25T04:12:37.685Z,100090
2018-01-25T04:15:07.548Z,100108
2018-01-25T04:17:37.410Z,100110
2018-01-25T04:20:07.278Z,100113
2018-01-25T04:22:37.110Z,100117
2018-01-25T04:25:06.940Z,100107
2018-01-25T04:27:36.766Z,100108
2018-01-25T04:30:06.634Z,100110
2018-01-25T04:32:36.470Z,100111
2018-01-25T04:35:06.329Z,100117
2018-01-25T04:37:36.154Z,100114
2018-01-25T04:40:06.006Z,100133
2018-01-25T04:42:35.993Z,100141
2018-01-25T04:45:05.817Z,100135
2018-01-25T04:47:35.692Z,100140
2018-01-25T04:50:05.503Z,100138
2018-01-25T04:52:35.692Z,100123
2018-01-25T04:55:05.509Z,100117
2018-01-25T04:57:35.717Z,100127
2018-01-25T05:00:05.711Z,100122
2018-01-25T05:02:35.876Z,100125
2018-01-25T05:05:05.794Z,100126
2018-01-25T05:07:35.752Z,100133
2018-01-25T05:10:05.573Z,100131
2018-01-25T05:12:35.428Z,100123
2018-01-25T05:15:05.265Z,100132
2018-01-25T05:17:36.684Z,100144
2018-01-25T05:20:06.566Z,100145
2018-01-25T05:22:36.423Z,100146
2018-01-25T05:25:06.257Z,100147
2018-01-25T05:27:36.134Z,100147
2018-01-25T05:30:05.948Z,100151
2018-01-25T05:32:35.780Z,100146
2018-01-25T05:35:05.639Z,100148
2018-01-25T05:37:35.465Z,100156
2018-01-25T05:40:05.623Z,100161
2018-01-25T05:42:35.445Z,100147
2018-01-25T05:45:05.358Z,100168
2018-01-25T05:47:35.295Z,100171
2018-01-25T05:50:05.149Z,100176
2018-01-25T05:52:34.960Z,100174
2018-01-25T05:55:04.835Z,100174
2018-01-25T05:57:34.724Z,100170
2018-01-25T06:00:05.306Z,100169
2018-01-25T06:02:35.165Z,100189
2018-01-25T06:05:04.991Z,100194
2018-01-25T06:07:34.831Z,100191
2018-01-25T06:10:04.704Z,100196
2018-01-25T06:12:34.555Z,100199
2018-01-25T06:15:04.386Z,100199
2018-01-25T06:17:34.310Z,100200
2018-01-25T06:20:04.134Z,100205
2018-01-25T06:22:34.011Z,100207
2018-01-25T06:25:03.848Z,100209
2018-01-25T06:27:33.702Z,100204
2018-01-25T06:30:03.725Z,100211
2018-01-25T06:32:33.550Z,100225
2018-01-25T06:35:03.776Z,100215
2018-01-25T06:37:33.585Z,100212
2018-01-25T06:40:03.711Z,100220
2018-01-25T06:42:33.565Z,100217
2018-01-25T06:45:03.739Z,100219
2018-01-25T06:47:33.554Z,100208
2018-01-25T06:50:03.776Z,100212
2018-01-25T06:52:33.618Z,100209
2018-01-25T06:55:03.810Z,100214
2018-01-25T06:57:33.665Z,100206
2018-01-25T07:00:03.885Z,100216
2018-01-25T07:02:33.738Z,100225
2018-01-25T07:05:03.644Z,100224
2018-01-25T07:07:33.488Z,100229
2018-01-25T07:10:03.471Z,100231
2018-01-25T07:12:33.303Z,100235
2018-01-25T07:15:03.221Z,100244
2018-01-25T07:17:33.117Z,100237
2018-01-25T07:20:02.996Z,100245
2018-01-25T07:22:33.157Z,100254
2018-01-25T07:25:02.998Z,100257
2018-01-25T07:27:32.838Z,100260
2018-01-25T07:30:02.836Z,100256
2018-01-25T07:32:33.103Z,100259
2018-01-25T07:35:03.049Z,100262
2018-01-25T07:37:32.920Z,100252
2018-01-25T07:40:02.794Z,100262
2018-01-25T07:42:32.669Z,100266
2018-01-25T07:45:02.508Z,100265
2018-01-25T07:47:32.430Z,100269
2018-01-25T07:50:02.719Z,100265
2018-01-25T07:52:32.583Z,100278
2018-01-25T07:55:02.397Z,100283
2018-01-25T07:57:38.046Z,100282
2018-01-25T08:00:07.975Z,100292
2018-01-25T08:02:37.810Z,100287
2018-01-25T08:05:07.712Z,100277
2018-01-25T08:07:37.564Z,100276
2018-01-25T08:10:08.330Z,100271
2018-01-25T08:12:38.241Z,100275
2018-01-25T08:15:08.058Z,100283
2018-01-25T08:17:37.893Z,100274
2018-01-25T08:20:07.725Z,100287
2018-01-25T08:22:37.571Z,100278
2018-01-25T08:25:07.495Z,100301
2018-01-25T08:27:37.367Z,100297
2018-01-25T08:30:07.213Z,100288
2018-01-25T08:32:37.023Z,100300
2018-01-25T08:35:06.888Z,100296
2018-01-25T08:37:36.753Z,100308
2018-01-25T08:40:06.584Z,100308
2018-01-25T08:42:36.515Z,100299
2018-01-25T08:45:06.344Z,100313
2018-01-25T08:47:36.224Z,100310
2018-01-25T08:50:06.070Z,100308
2018-01-25T08:52:35.890Z,100301
2018-01-25T08:55:05.753Z,100306
2018-01-25T08:57:35.587Z,100302
2018-01-25T09:00:05.422Z,100297
2018-01-25T09:02:35.302Z,100299
2018-01-25T09:05:05.153Z,100299
2018-01-25T09:07:35.029Z,100303
2018-01-25T09:10:04.991Z,100309
2018-01-25T09:12:34.844Z,100315
2018-01-25T09:15:04.680Z,100324
2018-01-25T09:17:34.606Z,100322
2018-01-25T09:20:04.457Z,100326
2018-01-25T09:22:34.315Z,100192
2018-01-25T09:25:04.147Z,100330
2018-01-25T09:27:34.003Z,100322
2018-01-25T09:30:03.860Z,100325
2018-01-25T09:32:33.729Z,100323
2018-01-25T09:35:03.613Z,100313
2018-01-25T09:37:33.564Z,100330
2018-01-25T09:40:03.449Z,100332
2018-01-25T09:42:33.327Z,100335
2018-01-25T09:45:03.162Z,100347
2018-01-25T09:47:33.011Z,100339
2018-01-25T09:50:02.923Z,100333
2018-01-25T09:52:32.940Z,100325
2018-01-25T09:55:02.814Z,100339
2018-01-25T09:57:32.669Z,100333
2018-01-25T10:00:02.525Z,100333
2018-01-25T10:02:35.081Z,100335
2018-01-25T10:08:59.427Z,100340
2018-01-25T10:14:31.925Z,100338
2018-01-25T10:17:01.761Z,100339
2018-01-25T10:19:31.639Z,100344
2018-01-25T10:22:24.802Z,100359
2018-01-25T10:24:54.673Z,100356
2018-01-25T10:27:24.539Z,100363
2018-01-25T10:29:54.398Z,100357
2018-01-25T10:32:24.225Z,100355
2018-01-25T10:34:54.089Z,100369
2018-01-25T10:37:23.990Z,100361
2018-01-25T10:39:53.834Z,100368
2018-01-25T10:42:23.720Z,100369
2018-01-25T10:44:53.543Z,100364
2018-01-25T10:51:11.466Z,100368
2018-01-25T10:53:41.369Z,100359
2018-01-25T10:56:14.101Z,100359
2018-01-25T10:58:56.748Z,100337
2018-01-25T11:01:37.946Z,100355
2018-01-25T11:07:01.029Z,100355
2018-01-25T11:12:27.220Z,100357
2018-01-25T11:14:57.252Z,100343
2018-01-25T11:17:27.236Z,100348
2018-01-25T11:19:57.091Z,100350
2018-01-25T11:22:26.992Z,100347
2018-01-25T11:24:56.914Z,100340
2018-01-25T11:27:27.776Z,100345
2018-01-25T11:29:57.730Z,100348
2018-01-25T11:32:27.562Z,100335
2018-01-25T11:34:57.431Z,100338
2018-01-25T11:37:27.311Z,100341
2018-01-25T11:39:57.350Z,100340
2018-01-25T11:42:27.181Z,100338
2018-01-25T11:44:57.053Z,100341
2018-01-25T11:47:26.898Z,100345
2018-01-25T11:49:56.811Z,100335
2018-01-25T11:52:26.642Z,100324
2018-01-25T11:54:56.463Z,100336
2018-01-25T11:57:26.316Z,100337
2018-01-25T11:59:56.142Z,100338
2018-01-25T12:02:26.585Z,100330
2018-01-25T12:04:56.496Z,100340
2018-01-25T12:07:26.313Z,100342
2018-01-25T12:09:56.215Z,100343
2018-01-25T12:12:26.148Z,100342
2018-01-25T12:14:56.096Z,100344
2018-01-25T12:17:26.026Z,100338
2018-01-25T12:19:56.094Z,100340
2018-01-25T12:22:25.911Z,100339
2018-01-25T12:24:55.821Z,100341
2018-01-25T12:27:25.637Z,100343
2018-01-25T12:29:55.458Z,100336
2018-01-25T12:32:25.334Z,100340
2018-01-25T12:34:55.282Z,100337
2018-01-25T12:37:25.230Z,100349
2018-01-25T12:39:55.139Z,100343
2018-01-25T12:42:25.491Z,100346
2018-01-25T12:44:55.399Z,100339
2018-01-25T12:47:25.348Z,100344
2018-01-25T12:49:55.201Z,100354
2018-01-25T12:52:25.064Z,100358
2018-01-25T12:54:54.915Z,100358
2018-01-25T12:57:24.900Z,100351
2018-01-25T12:59:54.741Z,100354
2018-01-25T13:02:24.551Z,100348
2018-01-25T13:04:54.698Z,100344
2018-01-25T13:07:24.557Z,100342
2018-01-25T13:09:54.539Z,100336
2018-01-25T13:12:24.363Z,100335
2018-01-25T13:14:54.294Z,100314
2018-01-25T13:17:24.124Z,100318
2018-01-25T13:19:53.961Z,100315
2018-01-25T13:22:23.816Z,100312
2018-01-25T13:24:53.712Z,100302
2018-01-25T13:27:23.624Z,100318
2018-01-25T13:29:53.504Z,100311
2018-01-25T13:32:23.409Z,100311
2018-01-25T13:34:53.293Z,100319
2018-01-25T13:37:23.218Z,100313
2018-01-25T13:39:53.067Z,100304
2018-01-25T13:42:22.988Z,100306
2018-01-25T13:44:52.884Z,100311
2018-01-25T13:47:22.797Z,100299
2018-01-25T13:49:52.694Z,100304
2018-01-25T13:52:28.205Z,100305
2018-01-25T13:54:58.201Z,100313
2018-01-25T13:57:28.187Z,100311
2018-01-25T13:59:58.097Z,100312
2018-01-25T14:02:27.963Z,100316
2018-01-25T14:04:57.891Z,100326
2018-01-25T14:07:27.831Z,100319
2018-01-25T14:09:57.765Z,100321
2018-01-25T14:12:27.733Z,100324
2018-01-25T14:14:57.744Z,100332
2018-01-25T14:17:27.760Z,100314
2018-01-25T14:19:57.733Z,100325
2018-01-25T14:22:27.674Z,100319
2018-01-25T14:24:57.591Z,100314
2018-01-25T14:27:27.494Z,100325
2018-01-25T14:29:57.352Z,100339
2018-01-25T14:32:27.293Z,100332
2018-01-25T14:34:57.167Z,100337
2018-01-25T14:37:27.092Z,100337
2018-01-25T14:39:56.937Z,100334
2018-01-25T14:42:26.856Z,100333
2018-01-25T14:44:56.749Z,100347
2018-01-25T14:47:26.626Z,100342
2018-01-25T14:49:56.539Z,100337
2018-01-25T14:52:26.370Z,100341
2018-01-25T14:54:56.364Z,100342
2018-01-25T14:57:26.234Z,100343
2018-01-25T14:59:56.112Z,100345
2018-01-25T15:02:25.966Z,100363
2018-01-25T15:04:55.832Z,100347
2018-01-25T15:07:25.808Z,100353
2018-01-25T15:09:55.666Z,100347
2018-01-25T15:12:25.584Z,100337
2018-01-25T15:14:55.415Z,100212
2018-01-25T15:17:25.869Z,100336
2018-01-25T15:19:55.765Z,100331
2018-01-25T15:22:25.607Z,100339
2018-01-25T15:25:01.027Z,100337
2018-01-25T15:27:33.577Z,100350
2018-01-25T15:30:03.391Z,100345
2018-01-25T15:32:33.296Z,100345
2018-01-25T15:35:03.151Z,100338
2018-01-25T15:37:33.012Z,100349
2018-01-25T15:40:02.927Z,100354
2018-01-25T15:42:32.897Z,100355
2018-01-25T15:45:02.771Z,100352
2018-01-25T15:47:32.672Z,100352
2018-01-25T15:50:02.530Z,100349
2018-01-25T15:52:32.382Z,100345
2018-01-25T15:55:02.437Z,100344
2018-01-25T15:57:32.278Z,100359
2018-01-25T16:00:02.212Z,100356
2018-01-25T16:02:32.092Z,100354
2018-01-25T16:05:02.108Z,100351
2018-01-25T16:07:31.919Z,100363
2018-01-25T16:10:01.764Z,100363
2018-01-25T16:12:31.721Z,100369
2018-01-25T16:15:01.556Z,100361
2018-01-25T16:17:31.500Z,100366
2018-01-25T16:20:01.340Z,100367
2018-01-25T16:22:31.200Z,100366
2018-01-25T16:25:01.025Z,100368
2018-01-25T16:27:31.107Z,100367
2018-01-25T16:30:00.915Z,100372
2018-01-25T16:32:30.809Z,100366
2018-01-25T16:35:00.672Z,100373
2018-01-25T16:37:30.549Z,100380
2018-01-25T16:40:00.481Z,100383
2018-01-25T16:42:30.394Z,100360
2018-01-25T16:45:00.270Z,100368
2018-01-25T16:47:30.102Z,100362
2018-01-25T16:50:00.052Z,100364
2018-01-25T16:52:30.421Z,100368
2018-01-25T16:55:00.308Z,100372
2018-01-25T16:57:30.344Z,100370
2018-01-25T17:00:00.179Z,100371
2018-01-25T17:02:30.225Z,100384
2018-01-25T17:05:00.069Z,100384
2018-01-25T17:07:30.065Z,100390
2018-01-25T17:09:59.918Z,100391
2018-01-25T17:12:30.718Z,100403
2018-01-25T17:15:00.593Z,100389
2018-01-25T17:17:30.454Z,100391
2018-01-25T17:20:00.332Z,100380
2018-01-25T17:22:30.250Z,100379
2018-01-25T17:25:00.232Z,100385
2018-01-25T17:27:30.129Z,100387
2018-01-25T17:30:00.044Z,100386
2018-01-25T17:32:29.954Z,100391
2018-01-25T17:34:59.815Z,100392
2018-01-25T17:37:29.926Z,100403
2018-01-25T17:39:59.780Z,100409
2018-01-25T17:42:29.646Z,100423
2018-01-25T17:44:59.539Z,100414
2018-01-25T17:47:29.728Z,100412
2018-01-25T17:49:59.617Z,100420
2018-01-25T17:52:29.475Z,100425
2018-01-25T17:54:59.327Z,100427
2018-01-25T17:57:29.425Z,100426
2018-01-25T17:59:59.292Z,100426
2018-01-25T18:02:29.209Z,100428
2018-01-25T18:04:59.072Z,100427
2018-01-25T18:07:28.969Z,100436
2018-01-25T18:09:58.915Z,100423
2018-01-25T18:12:28.948Z,100442
2018-01-25T18:14:58.885Z,100441
2018-01-25T18:17:28.836Z,100436
2018-01-25T18:19:58.702Z,100437
2018-01-25T18:22:28.634Z,100439
2018-01-25T18:24:58.517Z,100443
2018-01-25T18:27:28.377Z,100433
2018-01-25T18:29:58.322Z,100422
2018-01-25T18:32:28.246Z,100428
2018-01-25T18:34:58.187Z,100415
2018-01-25T18:37:28.038Z,100429
2018-01-25T18:39:58.062Z,100424
2018-01-25T18:42:27.929Z,100425
2018-01-25T18:44:57.827Z,100439
2018-01-25T18:47:27.752Z,100437
2018-01-25T18:49:57.636Z,100449
2018-01-25T18:52:27.996Z,100446
2018-01-25T18:54:57.830Z,100453
2018-01-25T18:57:27.733Z,100455
2018-01-25T18:59:57.609Z,100459
2018-01-25T19:02:27.615Z,100451
2018-01-25T19:04:58.251Z,100442
2018-01-25T19:07:28.165Z,100444
2018-01-25T19:09:58.100Z,100443
2018-01-25T19:12:28.010Z,100437
2018-01-25T19:14:57.904Z,100436
2018-01-25T19:17:27.766Z,100425
2018-01-25T19:19:57.661Z,100430
2018-01-25T19:22:27.570Z,100423
2018-01-25T19:24:57.748Z,100431
2018-01-25T19:27:27.627Z,100425
2018-01-25T19:29:57.487Z,100436
2018-01-25T19:32:27.444Z,100434
2018-01-25T19:34:57.388Z,100428
2018-01-25T19:37:27.583Z,100444
2018-01-25T19:39:57.681Z,100448
2018-01-25T19:42:27.537Z,100443
2018-01-25T19:44:57.457Z,100444
2018-01-25T19:47:27.544Z,100448
2018-01-25T19:49:57.424Z,100444
2018-01-25T19:52:27.350Z,100434
2018-01-25T19:54:57.302Z,100437
2018-01-25T19:57:27.159Z,100422
2018-01-25T19:59:57.092Z,100421
2018-01-25T20:02:27.007Z,100428
2018-01-25T20:04:56.948Z,100430
2018-01-25T20:07:26.857Z,100428
2018-01-25T20:09:56.742Z,100427
2018-01-25T20:12:26.711Z,100431
2018-01-25T20:14:56.652Z,100433
2018-01-25T20:17:26.809Z,100426
2018-01-25T20:19:56.710Z,100433
2018-01-25T20:22:26.677Z,100434
2018-01-25T20:24:56.606Z,100443
2018-01-25T20:27:26.653Z,100440
2018-01-25T20:29:56.621Z,100430
2018-01-25T20:32:26.579Z,100423
2018-01-25T20:34:56.508Z,100418
2018-01-25T20:37:26.465Z,100416
2018-01-25T20:39:56.446Z,100426
2018-01-25T20:42:26.487Z,100426
2018-01-25T20:44:56.325Z,100431
2018-01-25T20:47:26.303Z,100423
2018-01-25T20:49:56.257Z,100430
2018-01-25T20:52:26.109Z,100434
2018-01-25T20:54:55.979Z,100434
2018-01-25T20:57:25.912Z,100445
2018-01-25T20:59:55.947Z,100444
2018-01-25T21:02:25.881Z,100454
2018-01-25T21:04:55.908Z,100454
2018-01-25T21:07:25.820Z,100441
2018-01-25T21:09:55.751Z,100439
2018-01-25T21:12:25.636Z,100437
2018-01-25T21:14:55.629Z,100441
2018-01-25T21:17:25.608Z,100442
2018-01-25T21:19:55.540Z,100449
2018-01-25T21:22:25.460Z,100447
2018-01-25T21:24:55.346Z,100450
2018-01-25T21:27:25.535Z,100453
2018-01-25T21:29:55.434Z,100453
2018-01-25T21:32:25.275Z,100449
2018-01-25T21:34:55.165Z,100448
2018-01-25T21:37:25.034Z,100449
2018-01-25T21:39:55.018Z,100442
2018-01-25T21:42:24.898Z,100454
2018-01-25T21:44:54.881Z,100453
2018-01-25T21:47:24.760Z,100456
2018-01-25T21:49:54.614Z,100457
2018-01-25T21:52:24.484Z,100446
2018-01-25T21:54:54.502Z,100459
2018-01-25T21:57:24.377Z,100453
2018-01-25T21:59:54.228Z,100465
2018-01-25T22:02:24.149Z,100470
2018-01-25T22:04:54.266Z,100470
2018-01-25T22:07:24.200Z,100476
2018-01-25T22:09:54.053Z,100481
2018-01-25T22:12:24.013Z,100481
2018-01-25T22:14:54.078Z,100479
2018-01-25T22:17:24.000Z,100480
2018-01-25T22:19:53.838Z,100481
2018-01-25T22:22:23.683Z,100481
2018-01-25T22:24:53.550Z,100476
2018-01-25T22:27:23.414Z,100484
2018-01-25T22:29:53.528Z,100477
2018-01-25T22:32:23.424Z,100475
2018-01-25T22:34:53.319Z,100479
2018-01-25T22:37:23.190Z,100476
2018-01-25T22:39:53.175Z,100479
2018-01-25T22:42:23.059Z,100478
2018-01-25T22:44:52.898Z,100481
2018-01-25T22:47:22.739Z,100481
2018-01-25T22:49:52.598Z,100483
2018-01-25T22:52:22.599Z,100469
2018-01-25T22:54:52.437Z,100464
2018-01-25T22:57:22.386Z,100465
2018-01-25T22:59:52.215Z,100468
2018-01-25T23:02:22.692Z,100487
2018-01-25T23:04:52.595Z,100492
2018-01-25T23:07:22.491Z,100494
2018-01-25T23:09:52.404Z,100495
2018-01-25T23:14:58.465Z,100474
2018-01-25T23:17:28.340Z,100471
2018-01-25T23:19:58.249Z,100482
2018-01-25T23:22:28.164Z,100500
2018-01-25T23:24:57.999Z,100498
2018-01-25T23:27:27.954Z,100505
2018-01-25T23:29:57.807Z,100505
2018-01-25T23:32:27.653Z,100499
2018-01-25T23:34:57.569Z,100491
2018-01-25T23:37:27.409Z,100489
2018-01-25T23:39:57.281Z,100494
2018-01-25T23:42:27.139Z,100492
2018-01-25T23:44:57.003Z,100489
2018-01-25T23:47:26.870Z,100487
2018-01-25T23:49:56.766Z,100490
2018-01-25T23:52:26.649Z,100482
2018-01-25T23:54:56.485Z,100484
2018-01-25T23:57:26.374Z,100484
2018-01-25T23:59:56.328Z,100478
